Time;durP1;ratioP1;P1;durP2;ratioP2;P2;SDS_P1;SDS_P2;PMS_P1;PMS_P2;Temp;Humidity;BMP_temperature;BMP_pressure;BME280_temperature;BME280_humidity;BME280_pressure;Samples;Min_cycle;Max_cycle;Signal;HPM_P1;HPM_P2
2023/01/20 00:01:28;;;;;;;5.00;3.10;;;-3.00;99.90;;;;;;5064185;28;20551;-74
2023/01/20 00:03:57;;;;;;;4.00;2.95;;;-3.00;99.90;;;;;;5066866;28;20547;-74
2023/01/20 00:06:29;;;;;;;4.30;2.47;;;-3.10;99.90;;;;;;5063017;28;20286;-74
2023/01/20 00:08:57;;;;;;;9.30;3.10;;;-3.20;99.90;;;;;;5064220;28;20245;-74
2023/01/20 00:11:28;;;;;;;3.67;3.38;;;-3.30;99.90;;;;;;5062880;28;20425;-74
2023/01/20 00:13:55;;;;;;;6.00;2.90;;;-3.40;99.90;;;;;;5065529;28;20498;-74
2023/01/20 00:16:23;;;;;;;6.25;3.60;;;-3.40;99.90;;;;;;5071559;28;20209;-74
2023/01/20 00:18:50;;;;;;;3.03;2.70;;;-3.40;99.90;;;;;;5066555;28;20256;-74
2023/01/20 00:21:19;;;;;;;3.92;3.63;;;-3.50;99.90;;;;;;5065527;28;20249;-74
2023/01/20 00:23:47;;;;;;;12.23;2.97;;;-3.60;99.90;;;;;;5063082;28;20315;-74
2023/01/20 00:26:16;;;;;;;4.78;2.83;;;-3.60;99.90;;;;;;5063363;28;20778;-73
2023/01/20 00:28:44;;;;;;;3.75;2.75;;;-3.50;99.90;;;;;;5061380;28;20682;-73
2023/01/20 00:31:14;;;;;;;3.20;2.67;;;-3.50;99.90;;;;;;5063121;28;20259;-73
2023/01/20 00:33:41;;;;;;;3.25;2.95;;;-3.40;99.90;;;;;;5063014;28;20606;-74
2023/01/20 00:36:11;;;;;;;1.95;1.63;;;-3.40;99.90;;;;;;5061026;28;20222;-73
2023/01/20 00:38:40;;;;;;;5.20;2.03;;;-3.40;99.90;;;;;;5061992;28;20259;-74
2023/01/20 00:41:08;;;;;;;3.65;3.17;;;-3.30;99.90;;;;;;5057603;28;20649;-74
2023/01/20 00:43:35;;;;;;;1.50;1.40;;;-3.30;99.90;;;;;;5062305;28;20233;-74
2023/01/20 00:46:02;;;;;;;2.85;2.60;;;-3.30;99.90;;;;;;5062394;28;20530;-74
2023/01/20 00:48:29;;;;;;;1.92;1.65;;;-3.30;99.90;;;;;;5061346;28;20237;-74
2023/01/20 00:50:56;;;;;;;3.50;2.10;;;-3.40;99.90;;;;;;5064107;28;20279;-73
2023/01/20 00:53:23;;;;;;;3.95;2.97;;;-3.40;99.90;;;;;;5062461;28;20253;-73
2023/01/20 00:55:52;;;;;;;2.08;1.88;;;-3.40;99.90;;;;;;5058752;28;20234;-74
2023/01/20 00:58:21;;;;;;;5.15;2.35;;;-3.50;99.90;;;;;;5062845;28;20206;-74
2023/01/20 01:00:49;;;;;;;3.65;2.50;;;-3.50;99.90;;;;;;5063653;28;20252;-74
2023/01/20 01:03:16;;;;;;;1.85;1.50;;;-3.50;99.90;;;;;;5063130;28;20303;-74
2023/01/20 01:05:44;;;;;;;3.30;2.35;;;-3.50;99.90;;;;;;5057570;28;20245;-73
2023/01/20 01:08:19;;;;;;;2.80;1.83;;;-3.40;99.90;;;;;;5062324;28;20237;-73
2023/01/20 01:10:48;;;;;;;4.25;2.42;;;-3.40;99.90;;;;;;5060595;28;20227;-73
2023/01/20 01:13:16;;;;;;;3.90;2.67;;;-3.40;99.90;;;;;;5064818;28;20221;-73
2023/01/20 01:15:48;;;;;;;3.28;1.80;;;-3.50;99.90;;;;;;5059446;28;20299;-73
2023/01/20 01:18:18;;;;;;;3.47;2.70;;;-3.60;99.90;;;;;;5061296;28;20678;-74
2023/01/20 01:20:47;;;;;;;3.78;2.90;;;-3.60;99.90;;;;;;5058279;28;20304;-73
2023/01/20 01:23:15;;;;;;;2.85;2.40;;;-3.50;99.90;;;;;;5071728;28;20238;-73
2023/01/20 01:25:45;;;;;;;3.00;1.88;;;-3.50;99.90;;;;;;5060250;28;20691;-74
2023/01/20 01:28:12;;;;;;;5.07;3.35;;;-3.60;99.90;;;;;;5061990;28;20252;-73
2023/01/20 01:30:40;;;;;;;4.72;3.67;;;-3.40;99.90;;;;;;5057087;28;20699;-73
2023/01/20 01:33:09;;;;;;;4.78;3.53;;;-3.40;99.90;;;;;;5060943;28;20626;-73
2023/01/20 01:35:36;;;;;;;3.95;2.72;;;-3.50;99.90;;;;;;5060803;28;20233;-73
2023/01/20 01:40:50;;;;;;;4.82;3.63;;;-3.50;99.90;;;;;;5056957;28;20649;-73
2023/01/20 01:43:23;;;;;;;4.15;3.63;;;-3.60;99.90;;;;;;5058581;28;20220;-73
2023/01/20 01:45:52;;;;;;;4.63;3.72;;;-3.50;99.90;;;;;;5058231;28;20653;-74
2023/01/20 01:48:22;;;;;;;6.93;4.03;;;-3.50;99.90;;;;;;5060766;28;20295;-73
2023/01/20 01:50:57;;;;;;;4.40;4.00;;;-3.40;99.90;;;;;;5059599;28;20255;-73
2023/01/20 01:53:25;;;;;;;5.88;3.85;;;-3.30;99.90;;;;;;5061244;28;20260;-73
2023/01/20 01:55:58;;;;;;;6.75;4.15;;;-3.30;99.90;;;;;;5061542;28;20237;-73
2023/01/20 01:58:30;;;;;;;6.30;3.85;;;-3.30;99.90;;;;;;5063810;28;20238;-74
2023/01/20 02:00:58;;;;;;;5.30;3.35;;;-3.40;99.90;;;;;;5062574;28;20256;-74
2023/01/20 02:03:28;;;;;;;5.38;4.85;;;-3.30;99.90;;;;;;5059921;28;20233;-73
2023/01/20 02:05:56;;;;;;;3.80;3.30;;;-3.30;99.90;;;;;;5061753;28;20295;-73
2023/01/20 02:08:23;;;;;;;3.90;3.50;;;-3.40;99.90;;;;;;5057840;28;20269;-74
2023/01/20 02:10:52;;;;;;;7.95;4.85;;;-3.40;99.90;;;;;;5059350;28;20275;-74
2023/01/20 02:13:20;;;;;;;6.97;4.50;;;-3.30;99.90;;;;;;5059766;28;20771;-74
2023/01/20 02:15:58;;;;;;;4.45;3.22;;;-3.30;99.90;;;;;;5060377;28;20237;-73
2023/01/20 02:18:48;;;;;;;5.97;4.13;;;-3.30;99.90;;;;;;5057574;28;20233;-73
2023/01/20 02:22:01;;;;;;;4.50;3.35;;;-3.40;99.90;;;;;;5055307;28;20220;-73
2023/01/20 02:25:20;;;;;;;3.33;2.85;;;-3.30;99.90;;;;;;5061199;28;20249;-74
2023/01/20 02:28:28;;;;;;;4.53;3.53;;;-3.20;99.90;;;;;;5058796;28;20285;-73
2023/01/20 02:31:12;;;;;;;5.20;3.47;;;-3.20;99.90;;;;;;5057814;28;20656;-73
2023/01/20 02:33:48;;;;;;;5.68;3.63;;;-3.10;99.90;;;;;;5061868;28;20231;-74
2023/01/20 02:36:24;;;;;;;5.28;2.85;;;-3.10;99.90;;;;;;5056370;28;20500;-73
2023/01/20 02:39:03;;;;;;;4.22;2.88;;;-3.10;99.90;;;;;;5057141;28;20256;-73
2023/01/20 02:41:38;;;;;;;7.13;3.53;;;-3.00;99.90;;;;;;5059835;28;20564;-73
2023/01/20 02:44:12;;;;;;;3.42;2.38;;;-3.00;99.90;;;;;;5060983;28;20237;-73
2023/01/20 02:46:47;;;;;;;3.45;3.15;;;-3.10;99.90;;;;;;5060887;28;20349;-73
2023/01/20 02:49:23;;;;;;;3.55;2.72;;;-3.00;99.90;;;;;;5058471;28;20237;-73
2023/01/20 02:51:59;;;;;;;2.38;2.17;;;-3.00;99.90;;;;;;5059308;28;20198;-73
2023/01/20 02:54:32;;;;;;;2.80;2.05;;;-3.00;99.90;;;;;;5061519;28;20616;-73
2023/01/20 02:57:02;;;;;;;4.97;2.63;;;-3.10;99.90;;;;;;5060936;28;20205;-73
2023/01/20 02:59:32;;;;;;;7.43;2.85;;;-3.10;99.90;;;;;;5056559;28;20650;-73
2023/01/20 03:02:03;;;;;;;3.28;2.35;;;-3.10;99.90;;;;;;5062445;28;20643;-74
2023/01/20 03:04:37;;;;;;;4.10;3.00;;;-3.20;99.90;;;;;;5054316;28;20206;-73
2023/01/20 03:07:05;;;;;;;5.18;2.47;;;-3.20;99.90;;;;;;5058712;28;20256;-74
2023/01/20 03:09:37;;;;;;;3.30;2.50;;;-3.10;99.90;;;;;;5058528;28;20245;-74
2023/01/20 03:12:11;;;;;;;2.20;2.00;;;-3.00;99.90;;;;;;5067183;28;20247;-73
2023/01/20 03:14:38;;;;;;;3.47;1.95;;;-3.00;99.90;;;;;;5057827;28;20267;-73
2023/01/20 03:17:05;;;;;;;4.20;2.38;;;-3.10;99.90;;;;;;5060541;28;20661;-73
2023/01/20 03:19:35;;;;;;;4.35;2.20;;;-3.00;99.90;;;;;;5058833;28;20315;-73
2023/01/20 03:22:02;;;;;;;2.90;2.13;;;-3.00;99.90;;;;;;5060455;28;20756;-73
2023/01/20 03:24:32;;;;;;;2.55;1.95;;;-3.00;99.90;;;;;;5062693;28;20266;-73
2023/01/20 03:26:59;;;;;;;4.05;2.80;;;-3.00;99.90;;;;;;5061260;28;20241;-73
2023/01/20 03:29:27;;;;;;;5.07;2.63;;;-3.10;99.90;;;;;;5064975;28;20241;-74
2023/01/20 03:31:59;;;;;;;3.33;1.98;;;-3.10;99.90;;;;;;5061729;28;20603;-73
2023/01/20 03:34:29;;;;;;;3.20;2.15;;;-3.10;99.90;;;;;;5067507;28;20218;-74
2023/01/20 03:36:58;;;;;;;1.95;1.75;;;-3.10;99.90;;;;;;5063845;28;20229;-74
2023/01/20 03:39:25;;;;;;;2.70;1.52;;;-3.10;99.90;;;;;;5066608;28;20237;-73
2023/01/20 03:42:07;;;;;;;2.85;1.42;;;-3.10;99.90;;;;;;5062861;28;20679;-73
2023/01/20 03:44:48;;;;;;;2.55;1.38;;;-3.10;99.90;;;;;;5062983;28;20213;-73
2023/01/20 03:47:23;;;;;;;2.58;2.20;;;-3.20;99.90;;;;;;5060885;28;20295;-74
2023/01/20 03:49:56;;;;;;;2.10;1.45;;;-3.20;99.90;;;;;;5061922;28;20256;-73
2023/01/20 03:52:33;;;;;;;2.63;1.73;;;-3.20;99.90;;;;;;5065181;28;20257;-74
2023/01/20 03:55:04;;;;;;;4.03;1.60;;;-3.20;99.90;;;;;;5060951;28;20237;-73
2023/01/20 03:57:38;;;;;;;2.83;2.03;;;-3.20;99.90;;;;;;5061073;28;20234;-73
2023/01/20 04:00:08;;;;;;;3.60;1.65;;;-3.10;99.90;;;;;;5064636;28;20217;-74
2023/01/20 04:02:39;;;;;;;1.77;1.30;;;-3.00;99.90;;;;;;5064452;28;20645;-73
2023/01/20 04:05:10;;;;;;;1.80;1.50;;;-3.00;99.90;;;;;;5063419;28;20286;-74
2023/01/20 04:07:43;;;;;;;3.30;1.77;;;-2.90;99.90;;;;;;5057629;28;20234;-73
2023/01/20 04:10:15;;;;;;;3.42;1.73;;;-2.90;99.90;;;;;;5064367;28;20560;-73
2023/01/20 04:12:42;;;;;;;1.90;1.23;;;-2.90;99.90;;;;;;5061722;28;20382;-73
2023/01/20 04:15:12;;;;;;;3.75;2.45;;;-3.00;99.90;;;;;;5062297;28;20233;-73
2023/01/20 04:17:39;;;;;;;2.30;1.60;;;-2.90;99.90;;;;;;5062696;28;20536;-74
2023/01/20 04:20:10;;;;;;;1.48;1.38;;;-2.90;99.90;;;;;;5069711;28;20241;-74
2023/01/20 04:22:46;;;;;;;3.75;2.50;;;-2.90;99.90;;;;;;5064221;28;20209;-73
2023/01/20 04:25:17;;;;;;;4.22;2.03;;;-2.90;99.90;;;;;;5061225;28;20244;-73
2023/01/20 04:27:44;;;;;;;2.70;2.40;;;-2.90;99.90;;;;;;5060946;28;20237;-74
2023/01/20 04:30:13;;;;;;;2.65;1.55;;;-3.00;99.90;;;;;;5062701;28;20205;-73
2023/01/20 04:32:40;;;;;;;2.47;1.25;;;-3.00;99.90;;;;;;5064683;28;20258;-73
2023/01/20 04:35:09;;;;;;;4.00;1.75;;;-2.90;99.90;;;;;;5062071;28;20238;-74
2023/01/20 04:37:38;;;;;;;4.90;1.77;;;-2.90;99.90;;;;;;5064250;28;20685;-73
2023/01/20 04:40:06;;;;;;;3.75;1.52;;;-3.00;99.90;;;;;;5063971;28;20549;-74
2023/01/20 04:42:33;;;;;;;3.38;1.50;;;-2.90;99.90;;;;;;5064070;28;20218;-73
2023/01/20 04:45:00;;;;;;;2.55;1.80;;;-2.80;99.90;;;;;;5060021;28;20568;-74
2023/01/20 04:47:30;;;;;;;1.85;1.50;;;-2.80;99.90;;;;;;5065044;28;20230;-73
2023/01/20 04:49:57;;;;;;;2.00;1.25;;;-2.80;99.90;;;;;;5069665;28;20198;-73
2023/01/20 04:52:24;;;;;;;2.80;1.85;;;-2.80;99.90;;;;;;5073286;28;20233;-74
2023/01/20 04:54:56;;;;;;;4.15;2.33;;;-2.80;99.90;;;;;;5062614;28;20252;-74
2023/01/20 04:57:25;;;;;;;2.08;1.70;;;-2.90;99.90;;;;;;5064481;28;20238;-74
2023/01/20 04:59:52;;;;;;;1.73;1.23;;;-2.90;99.90;;;;;;5063346;28;20202;-74
2023/01/20 05:02:19;;;;;;;1.90;1.38;;;-2.90;99.90;;;;;;5062352;28;20233;-73
2023/01/20 05:04:46;;;;;;;1.75;1.30;;;-2.80;99.90;;;;;;5063941;28;20241;-74
2023/01/20 05:07:13;;;;;;;2.47;1.50;;;-2.80;99.90;;;;;;5061561;28;20603;-73
2023/01/20 05:09:42;;;;;;;2.20;1.98;;;-2.80;99.90;;;;;;5061952;28;20237;-73
2023/01/20 05:12:10;;;;;;;2.85;2.17;;;-2.60;99.90;;;;;;5063411;28;20295;-73
2023/01/20 05:14:37;;;;;;;2.25;1.25;;;-2.50;99.90;;;;;;5064010;28;20253;-74
2023/01/20 05:17:04;;;;;;;1.90;1.40;;;-2.50;99.90;;;;;;5061098;28;20699;-73
2023/01/20 05:19:31;;;;;;;3.72;1.65;;;-2.50;99.90;;;;;;5062947;28;20234;-74
2023/01/20 05:21:59;;;;;;;1.42;1.33;;;-2.60;99.90;;;;;;5066657;28;20230;-74
2023/01/20 05:24:34;;;;;;;3.35;1.92;;;-2.60;99.90;;;;;;5056758;28;20273;-74
2023/01/20 05:27:04;;;;;;;1.88;1.50;;;-2.60;99.90;;;;;;5056369;28;20646;-73
2023/01/20 05:29:35;;;;;;;5.10;3.10;;;-2.60;99.90;;;;;;5060536;28;20221;-74
2023/01/20 05:32:04;;;;;;;21.95;13.68;;;-2.60;99.90;;;;;;5060820;28;20641;-74
2023/01/20 05:34:30;;;;;;;15.30;9.48;;;-2.60;99.90;;;;;;5060830;28;20227;-74
2023/01/20 05:36:57;;;;;;;5.25;4.05;;;-2.60;99.90;;;;;;5060097;28;20237;-74
2023/01/20 05:39:27;;;;;;;3.58;2.92;;;-2.70;99.90;;;;;;5061814;28;20241;-73
2023/01/20 05:41:54;;;;;;;3.17;2.17;;;-2.70;99.90;;;;;;5057163;28;20217;-74
2023/01/20 05:44:23;;;;;;;2.53;1.80;;;-2.60;99.90;;;;;;5062692;28;20233;-74
2023/01/20 05:46:51;;;;;;;2.28;1.40;;;-2.50;99.90;;;;;;5060350;28;20237;-74
2023/01/20 05:49:21;;;;;;;2.10;1.55;;;-2.60;99.90;;;;;;5065774;28;20256;-74
2023/01/20 05:51:48;;;;;;;2.65;1.55;;;-2.60;99.90;;;;;;5055412;28;20229;-73
2023/01/20 05:54:15;;;;;;;1.25;1.15;;;-2.60;99.90;;;;;;5058857;28;20265;-74
2023/01/20 05:56:51;;;;;;;2.30;1.20;;;-2.70;99.90;;;;;;5059264;28;20237;-74
2023/01/20 05:59:18;;;;;;;2.83;1.92;;;-2.70;99.90;;;;;;5057909;28;20233;-74
2023/01/20 06:01:47;;;;;;;4.75;2.05;;;-2.70;99.90;;;;;;5056490;28;20236;-74
2023/01/20 06:04:16;;;;;;;2.78;1.60;;;-2.80;99.90;;;;;;5062347;28;20226;-74
2023/01/20 06:06:42;;;;;;;3.15;2.33;;;-2.70;99.90;;;;;;5059998;28;20233;-74
2023/01/20 06:09:10;;;;;;;2.35;1.80;;;-2.70;99.90;;;;;;5058935;28;20229;-74
2023/01/20 06:11:37;;;;;;;3.53;1.67;;;-2.70;99.90;;;;;;5060798;28;20206;-74
2023/01/20 06:14:04;;;;;;;3.50;1.65;;;-2.70;99.90;;;;;;5058041;28;20322;-74
2023/01/20 06:16:31;;;;;;;2.72;1.45;;;-2.60;99.90;;;;;;5061951;28;20232;-74
2023/01/20 06:19:00;;;;;;;2.65;1.27;;;-2.60;99.90;;;;;;5059125;28;20230;-74
2023/01/20 06:21:29;;;;;;;2.78;1.83;;;-2.60;99.90;;;;;;5054836;28;20314;-74
2023/01/20 06:23:58;;;;;;;2.55;1.33;;;-2.60;99.90;;;;;;5058243;28;20226;-74
2023/01/20 06:26:25;;;;;;;4.90;2.70;;;-2.60;99.90;;;;;;5054354;28;20718;-73
2023/01/20 06:28:52;;;;;;;5.35;3.80;;;-2.50;99.90;;;;;;5056905;28;20237;-73
2023/01/20 06:31:22;;;;;;;4.65;3.03;;;-2.60;99.90;;;;;;5056223;28;20244;-74
2023/01/20 06:33:48;;;;;;;7.00;3.28;;;-2.50;99.90;;;;;;5053493;28;20451;-76
2023/01/20 06:36:16;;;;;;;11.15;5.32;;;-2.50;99.90;;;;;;5056317;28;20237;-75
2023/01/20 06:38:49;;;;;;;5.05;3.42;;;-2.50;99.90;;;;;;5056785;28;20631;-76
2023/01/20 06:41:18;;;;;;;5.32;2.78;;;-2.50;99.90;;;;;;5058144;28;20210;-76
2023/01/20 06:43:45;;;;;;;4.55;2.08;;;-2.40;99.90;;;;;;5055291;28;20229;-76
2023/01/20 06:46:14;;;;;;;4.25;2.15;;;-2.50;99.90;;;;;;5061651;28;20230;-76
2023/01/20 06:48:42;;;;;;;3.40;2.00;;;-2.40;99.90;;;;;;5062349;28;20290;-76
2023/01/20 06:51:12;;;;;;;2.78;1.80;;;-2.30;99.90;;;;;;5057570;28;20206;-76
2023/01/20 06:53:46;;;;;;;3.42;1.75;;;-2.20;99.90;;;;;;5061542;28;20591;-76
2023/01/20 06:56:15;;;;;;;1.85;1.67;;;-2.20;99.90;;;;;;5063733;28;20259;-76
2023/01/20 06:58:45;;;;;;;21.23;12.85;;;-2.20;99.90;;;;;;5059729;28;20238;-74
2023/01/20 07:01:14;;;;;;;1.70;1.58;;;-2.20;99.90;;;;;;5060550;28;20214;-74
2023/01/20 07:03:42;;;;;;;2.72;2.05;;;-2.20;99.90;;;;;;5061964;28;20654;-73
2023/01/20 07:06:15;;;;;;;9.60;7.57;;;-2.20;99.90;;;;;;5063866;28;20521;-73
2023/01/20 07:08:43;;;;;;;5.82;3.45;;;-2.10;99.90;;;;;;5062189;28;20245;-74
2023/01/20 07:11:10;;;;;;;2.10;1.90;;;-2.10;99.90;;;;;;5061773;28;20256;-74
2023/01/20 07:13:42;;;;;;;64.03;31.05;;;-2.10;99.90;;;;;;5062300;28;20265;-74
2023/01/20 07:16:13;;;;;;;34.25;15.63;;;-2.00;99.90;;;;;;5061516;28;20230;-73
2023/01/20 07:18:40;;;;;;;17.10;7.00;;;-2.00;99.90;;;;;;5059909;28;20237;-74
2023/01/20 07:21:09;;;;;;;7.72;4.55;;;-2.00;99.90;;;;;;5061636;28;20511;-74
2023/01/20 07:23:36;;;;;;;12.80;8.23;;;-1.90;99.90;;;;;;5059908;28;20513;-73
2023/01/20 07:26:05;;;;;;;4.65;2.60;;;-1.90;99.90;;;;;;5059887;28;20909;-73
2023/01/20 07:28:36;;;;;;;4.07;3.20;;;-1.80;99.90;;;;;;5054433;28;20242;-73
2023/01/20 07:31:05;;;;;;;4.43;2.85;;;-1.80;99.90;;;;;;5067435;28;20272;-73
2023/01/20 07:33:34;;;;;;;5.78;3.30;;;-1.80;99.90;;;;;;5063187;28;20352;-74
2023/01/20 07:36:01;;;;;;;4.65;2.97;;;-1.70;99.90;;;;;;5052989;28;20260;-74
2023/01/20 07:38:28;;;;;;;4.50;2.80;;;-1.60;99.90;;;;;;5056569;28;20292;-73
2023/01/20 07:40:57;;;;;;;4.15;3.80;;;-1.70;99.90;;;;;;5055870;28;20646;-74
2023/01/20 07:43:24;;;;;;;5.72;3.17;;;-1.60;99.90;;;;;;5059400;28;20238;-73
2023/01/20 07:45:54;;;;;;;5.45;4.90;;;-1.60;99.90;;;;;;5050691;28;20307;-74
2023/01/20 07:48:23;;;;;;;4.95;4.45;;;-1.50;99.90;;;;;;5066047;28;20264;-73
2023/01/20 07:51:01;;;;;;;6.68;4.88;;;-1.50;99.90;;;;;;5062726;28;20202;-74
2023/01/20 07:53:28;;;;;;;8.40;6.40;;;-1.40;99.90;;;;;;5063720;28;20521;-74
2023/01/20 07:55:55;;;;;;;7.47;5.68;;;-1.40;99.90;;;;;;5058590;28;20202;-73
2023/01/20 07:58:22;;;;;;;9.45;6.60;;;-1.30;99.90;;;;;;5063571;28;20473;-74
2023/01/20 08:00:52;;;;;;;10.43;7.22;;;-1.30;99.90;;;;;;5060927;28;20287;-74
2023/01/20 08:03:18;;;;;;;12.50;8.18;;;-1.20;99.90;;;;;;5059594;28;21180;-73
2023/01/20 08:05:51;;;;;;;18.58;10.07;;;-1.20;99.90;;;;;;5052278;28;20233;-73
2023/01/20 08:08:18;;;;;;;10.50;9.25;;;-1.20;99.90;;;;;;5056645;28;20221;-74
2023/01/20 08:10:46;;;;;;;9.75;8.23;;;-1.20;99.90;;;;;;5055070;28;20638;-74
2023/01/20 08:13:13;;;;;;;15.77;9.85;;;-1.20;99.90;;;;;;5055241;28;20198;-73
2023/01/20 08:15:40;;;;;;;10.00;9.00;;;-1.20;99.90;;;;;;5056349;28;20254;-74
2023/01/20 08:18:07;;;;;;;13.10;10.85;;;-1.20;99.90;;;;;;5061180;28;20777;-74
2023/01/20 08:20:36;;;;;;;14.68;11.20;;;-1.10;99.90;;;;;;5065566;28;20245;-74
2023/01/20 08:23:04;;;;;;;11.93;10.15;;;-1.10;99.90;;;;;;5055107;28;20199;-74
2023/01/20 08:25:31;;;;;;;18.92;12.82;;;-1.10;99.90;;;;;;5048438;28;20300;-74
2023/01/20 08:27:58;;;;;;;13.23;10.73;;;-1.10;99.90;;;;;;5060351;28;20210;-74
2023/01/20 08:30:25;;;;;;;17.35;12.63;;;-1.10;99.90;;;;;;5061362;28;20242;-74
2023/01/20 08:32:52;;;;;;;17.35;12.75;;;-1.00;99.90;;;;;;5068306;28;20237;-74
2023/01/20 08:35:22;;;;;;;19.80;14.27;;;-1.00;99.90;;;;;;5061742;28;20253;-73
2023/01/20 08:37:49;;;;;;;15.50;11.98;;;-0.90;99.90;;;;;;5060122;28;20868;-74
2023/01/20 08:40:17;;;;;;;15.95;11.98;;;-0.90;99.90;;;;;;5062755;28;20245;-74
2023/01/20 08:42:44;;;;;;;14.85;11.68;;;-1.00;99.90;;;;;;5066882;28;20244;-74
2023/01/20 08:45:11;;;;;;;18.85;13.35;;;-0.90;99.90;;;;;;5060995;28;20230;-73
2023/01/20 08:47:43;;;;;;;20.42;14.02;;;-0.90;99.90;;;;;;5064184;28;20238;-74
2023/01/20 08:50:16;;;;;;;18.25;13.43;;;-0.90;99.90;;;;;;5059459;28;20209;-74
2023/01/20 08:52:44;;;;;;;12.90;11.25;;;-0.80;99.90;;;;;;5059355;28;20209;-74
2023/01/20 08:55:11;;;;;;;14.98;10.98;;;-0.80;99.90;;;;;;5061434;28;20266;-74
2023/01/20 08:57:39;;;;;;;16.08;12.93;;;-0.70;99.90;;;;;;5064208;28;20314;-74
2023/01/20 09:00:09;;;;;;;17.85;13.38;;;-0.70;99.90;;;;;;5063379;28;20226;-74
2023/01/20 09:02:38;;;;;;;15.15;11.85;;;-0.70;99.90;;;;;;5059089;28;20202;-73
2023/01/20 09:05:05;;;;;;;16.10;13.38;;;-0.70;99.90;;;;;;5063386;28;20691;-74
2023/01/20 09:07:35;;;;;;;14.82;11.65;;;-0.60;99.90;;;;;;5062033;28;20205;-74
2023/01/20 09:10:02;;;;;;;16.40;12.88;;;-0.70;99.90;;;;;;5059013;28;20206;-73
2023/01/20 09:12:28;;;;;;;19.10;11.73;;;-0.80;99.90;;;;;;5060796;28;20226;-74
2023/01/20 09:15:06;;;;;;;18.55;14.85;;;-0.70;99.90;;;;;;5062098;28;20265;-74
2023/01/20 09:17:34;;;;;;;17.75;13.02;;;-0.80;99.90;;;;;;5059974;28;20743;-74
2023/01/20 09:20:01;;;;;;;18.67;12.23;;;-0.70;99.90;;;;;;5058283;28;20602;-74
2023/01/20 09:22:28;;;;;;;16.70;12.60;;;-0.70;99.90;;;;;;5053409;28;20209;-74
2023/01/20 09:24:55;;;;;;;15.70;12.90;;;-0.60;99.90;;;;;;5059709;28;20276;-74
2023/01/20 09:27:22;;;;;;;19.63;14.00;;;-0.50;99.90;;;;;;5058713;28;20609;-74
2023/01/20 09:29:51;;;;;;;19.35;14.10;;;-0.50;99.90;;;;;;5058596;28;20214;-74
2023/01/20 09:32:24;;;;;;;17.83;13.43;;;-0.40;99.90;;;;;;5059296;28;20240;-74
2023/01/20 09:34:51;;;;;;;19.88;13.20;;;-0.50;99.90;;;;;;5053005;28;20234;-75
2023/01/20 09:45:52;;;;;;;23.38;16.42;;;-0.40;99.90;;;;;;5059538;28;20208;-74
2023/01/20 09:54:10;;;;;;;22.35;14.15;;;-0.20;99.90;;;;;;5058367;28;20459;-74
2023/01/20 09:56:43;;;;;;;20.30;14.80;;;-0.30;99.90;;;;;;5058310;28;20198;-74
2023/01/20 09:59:15;;;;;;;18.38;14.15;;;-0.20;99.90;;;;;;5059873;28;20229;-75
2023/01/20 10:01:45;;;;;;;19.63;14.20;;;-0.20;99.90;;;;;;5056101;28;20233;-75
2023/01/20 10:04:19;;;;;;;18.42;15.10;;;-0.10;99.90;;;;;;5055466;28;20240;-75
2023/01/20 10:06:49;;;;;;;20.20;14.93;;;0.00;99.90;;;;;;5062487;28;20238;-75
2023/01/20 10:09:22;;;;;;;19.83;16.47;;;0.00;99.90;;;;;;5062337;28;20786;-75
2023/01/20 10:11:55;;;;;;;18.88;14.40;;;-0.10;99.90;;;;;;5058750;28;20539;-75
2023/01/20 10:14:28;;;;;;;20.10;15.73;;;-0.10;99.90;;;;;;5062290;28;20674;-75
2023/01/20 10:17:07;;;;;;;26.07;15.10;;;-0.10;99.90;;;;;;5057010;28;20496;-75
2023/01/20 10:19:45;;;;;;;21.30;14.93;;;-0.20;99.90;;;;;;5055778;28;20535;-75
2023/01/20 10:22:25;;;;;;;24.48;16.50;;;-0.10;99.90;;;;;;5052796;28;20989;-75
2023/01/20 10:24:57;;;;;;;24.13;17.30;;;0.00;99.90;;;;;;5059392;28;20695;-75
2023/01/20 10:27:27;;;;;;;21.67;14.90;;;0.00;99.90;;;;;;5063190;28;20452;-74
2023/01/20 10:30:02;;;;;;;23.25;16.95;;;0.00;99.90;;;;;;5062058;28;20229;-75
2023/01/20 10:32:35;;;;;;;24.47;16.60;;;-0.10;99.90;;;;;;5055444;28;20229;-75
2023/01/20 10:35:14;;;;;;;24.80;16.13;;;0.00;99.90;;;;;;5061577;28;20738;-75
2023/01/20 10:37:41;;;;;;;25.70;18.10;;;0.00;99.90;;;;;;5056545;28;20216;-75
2023/01/20 10:40:19;;;;;;;30.87;22.07;;;0.00;99.90;;;;;;5059238;28;20919;-75
2023/01/20 10:42:48;;;;;;;28.75;20.77;;;0.10;99.90;;;;;;5055242;28;20499;-75
2023/01/20 10:45:20;;;;;;;30.20;22.67;;;0.20;99.90;;;;;;5055693;28;20277;-75
2023/01/20 10:47:57;;;;;;;30.70;20.37;;;0.00;99.90;;;;;;5054584;28;20521;-75
2023/01/20 10:50:46;;;;;;;27.63;20.80;;;0.00;99.90;;;;;;5058907;28;20495;-75
2023/01/20 10:53:37;;;;;;;24.53;17.70;;;0.00;99.90;;;;;;5061094;28;21665;-75
2023/01/20 10:56:42;;;;;;;24.55;17.35;;;0.10;99.90;;;;;;5061274;28;20515;-75
2023/01/20 10:59:14;;;;;;;26.77;18.93;;;0.00;99.90;;;;;;5054395;28;20201;-75
2023/01/20 11:01:42;;;;;;;25.95;19.05;;;0.10;99.90;;;;;;5058275;28;20464;-75
2023/01/20 11:04:20;;;;;;;25.03;18.57;;;0.10;99.90;;;;;;5060397;28;20225;-75
2023/01/20 11:06:51;;;;;;;24.40;17.50;;;0.10;99.90;;;;;;5051922;28;20440;-75
2023/01/20 11:09:24;;;;;;;24.27;17.50;;;0.10;99.90;;;;;;5056347;28;20242;-75
2023/01/20 11:11:52;;;;;;;21.77;16.37;;;0.10;99.90;;;;;;5062105;28;20474;-75
2023/01/20 11:14:19;;;;;;;24.35;18.55;;;0.20;99.90;;;;;;5053004;28;20582;-75
2023/01/20 11:16:50;;;;;;;26.75;17.15;;;0.30;99.90;;;;;;5060232;28;20670;-75
2023/01/20 11:19:17;;;;;;;25.07;18.53;;;0.20;99.90;;;;;;5056002;28;20238;-75
2023/01/20 11:21:44;;;;;;;26.27;18.80;;;0.10;99.90;;;;;;5057443;28;20507;-75
2023/01/20 11:24:36;;;;;;;23.83;18.08;;;0.20;99.90;;;;;;5052468;28;20238;-75
2023/01/20 11:27:05;;;;;;;26.30;17.70;;;0.30;99.90;;;;;;5047489;28;20287;-75
2023/01/20 11:29:44;;;;;;;24.53;17.90;;;0.40;99.90;;;;;;5051352;28;20841;-75
2023/01/20 11:32:29;;;;;;;24.17;19.00;;;0.30;99.90;;;;;;5052131;28;20459;-75
2023/01/20 11:34:57;;;;;;;24.92;16.75;;;0.30;99.90;;;;;;5053908;28;20929;-75
2023/01/20 11:37:28;;;;;;;23.00;15.73;;;0.30;99.90;;;;;;5057202;28;20237;-75
2023/01/20 11:40:01;;;;;;;23.25;17.70;;;0.30;99.90;;;;;;5059398;28;20473;-75
2023/01/20 11:42:30;;;;;;;27.43;18.30;;;0.40;99.90;;;;;;5062132;28;20210;-75
2023/01/20 11:45:01;;;;;;;23.25;17.42;;;0.50;99.90;;;;;;5060628;28;20444;-74
2023/01/20 11:47:30;;;;;;;22.40;17.25;;;0.50;99.90;;;;;;5057598;28;20325;-75
2023/01/20 11:50:28;;;;;;;18.75;15.00;;;0.50;99.90;;;;;;5064850;28;20764;-77
2023/01/20 11:53:12;;;;;;;20.27;14.85;;;0.60;99.90;;;;;;5064698;28;20225;-77
2023/01/20 11:55:53;;;;;;;19.38;14.70;;;0.50;99.90;;;;;;5052834;28;20268;-75
2023/01/20 11:58:22;;;;;;;21.48;14.07;;;0.40;99.90;;;;;;5056689;28;20719;-75
2023/01/20 12:00:52;;;;;;;28.63;17.63;;;0.50;99.90;;;;;;5060423;28;20238;-75
2023/01/20 12:03:47;;;;;;;21.70;15.60;;;0.50;99.90;;;;;;5051757;28;20214;-75
2023/01/20 12:06:26;;;;;;;21.83;16.42;;;0.60;99.90;;;;;;5060354;28;20209;-75
2023/01/20 12:08:58;;;;;;;21.00;14.60;;;0.60;99.90;;;;;;5062113;28;20621;-75
2023/01/20 12:11:30;;;;;;;24.05;18.25;;;0.70;99.90;;;;;;5064777;28;20607;-77
2023/01/20 12:14:27;;;;;;;18.77;16.33;;;0.80;99.90;;;;;;5058374;28;20496;-75
2023/01/20 12:17:32;;;;;;;24.90;16.53;;;0.80;99.90;;;;;;5059868;28;20491;-75
2023/01/20 12:20:07;;;;;;;28.30;18.27;;;0.80;99.90;;;;;;5057928;28;21695;-75
2023/01/20 12:22:43;;;;;;;23.35;16.65;;;0.60;99.90;;;;;;5059560;28;20838;-75
2023/01/20 12:25:18;;;;;;;19.08;15.40;;;0.60;99.90;;;;;;5063535;28;20232;-75
2023/01/20 12:27:49;;;;;;;23.63;18.88;;;0.60;99.90;;;;;;5064803;28;20205;-75
2023/01/20 12:30:39;;;;;;;22.63;15.85;;;0.60;99.90;;;;;;5059859;28;20514;-75
2023/01/20 12:33:14;;;;;;;27.88;18.27;;;0.70;99.90;;;;;;5055974;28;20630;-75
2023/01/20 12:36:05;;;;;;;18.77;14.77;;;0.70;99.90;;;;;;5058794;28;20264;-75
2023/01/20 12:38:43;;;;;;;24.75;14.95;;;0.50;99.90;;;;;;5052376;28;20483;-75
2023/01/20 12:41:33;;;;;;;25.30;15.68;;;0.60;99.90;;;;;;5058679;28;20289;-75
2023/01/20 12:44:13;;;;;;;26.33;15.80;;;0.50;99.90;;;;;;5056950;28;20301;-75
2023/01/20 12:46:45;;;;;;;24.33;16.60;;;0.30;99.90;;;;;;5057940;28;20481;-75
2023/01/20 12:49:42;;;;;;;19.97;13.57;;;0.30;99.90;;;;;;5062585;28;20530;-75
2023/01/20 12:52:27;;;;;;;21.13;15.20;;;0.30;99.90;;;;;;5056134;28;20526;-75
2023/01/20 12:55:14;;;;;;;23.00;17.05;;;0.30;99.90;;;;;;5060341;28;20910;-76
2023/01/20 12:57:59;;;;;;;24.53;15.70;;;0.30;99.90;;;;;;5053460;28;20242;-77
2023/01/20 13:00:53;;;;;;;20.33;15.00;;;0.30;99.90;;;;;;5053924;28;20484;-76
2023/01/20 13:03:54;;;;;;;24.08;16.95;;;0.40;99.90;;;;;;5062822;28;20598;-76
2023/01/20 13:06:41;;;;;;;22.90;16.05;;;0.30;99.90;;;;;;5052646;28;20672;-75
2023/01/20 13:09:25;;;;;;;18.10;15.15;;;0.30;99.90;;;;;;5056258;28;20454;-75
2023/01/20 13:12:04;;;;;;;23.27;15.63;;;0.30;99.90;;;;;;5057430;28;20383;-75
2023/01/20 13:14:39;;;;;;;22.50;16.30;;;0.30;99.90;;;;;;5065819;28;20486;-75
2023/01/20 13:17:17;;;;;;;21.30;16.15;;;0.20;99.90;;;;;;5057573;28;20803;-75
2023/01/20 13:19:47;;;;;;;22.33;16.33;;;0.30;99.90;;;;;;5060423;28;20229;-75
2023/01/20 13:22:19;;;;;;;21.95;15.55;;;0.30;99.90;;;;;;5062844;28;20224;-75